Time;durP1;ratioP1;P1;durP2;ratioP2;P2;SDS_P1;SDS_P2;PMS_P1;PMS_P2;Temp;Humidity;BMP_temperature;BMP_pressure;BME280_temperature;BME280_humidity;BME280_pressure;Samples;Min_cycle;Max_cycle;Signal;HPM_P1;HPM_P2
2022/04/05 00:00:59;;;;;;;0.60;0.50;;;;;;;;;;5054195;28;20448;-74
2022/04/05 00:03:27;;;;;;;0.60;0.60;;;;;;;;;;5066521;28;20462;-75
2022/04/05 00:05:54;;;;;;;0.60;0.60;;;;;;;;;;5072407;28;20442;-76
2022/04/05 00:08:20;;;;;;;0.60;0.60;;;;;;;;;;5074165;28;20451;-77
2022/04/05 00:10:48;;;;;;;0.70;0.67;;;;;;;;;;5072100;28;20428;-75
2022/04/05 00:13:14;;;;;;;0.60;0.60;;;;;;;;;;5063755;28;20482;-73
2022/04/05 00:15:42;;;;;;;0.60;0.50;;;;;;;;;;5075011;28;20447;-75
2022/04/05 00:18:10;;;;;;;0.60;0.60;;;;;;;;;;5071286;28;20431;-76
2022/04/05 00:20:37;;;;;;;0.97;0.97;;;;;;;;;;5073930;28;20434;-77
2022/04/05 00:23:03;;;;;;;0.70;0.60;;;;;;;;;;5059622;28;20438;-74
2022/04/05 00:25:30;;;;;;;0.60;0.60;;;;;;;;;;5074772;28;20447;-76
2022/04/05 00:27:57;;;;;;;0.60;0.53;;;;;;;;;;5075762;28;20434;-75
2022/04/05 00:30:23;;;;;;;0.60;0.60;;;;;;;;;;5059520;28;20438;-78
2022/04/05 00:32:51;;;;;;;0.60;0.60;;;;;;;;;;5083840;28;20455;-75
2022/04/05 00:35:18;;;;;;;1.07;0.97;;;;;;;;;;5075852;28;20415;-76
2022/04/05 00:37:45;;;;;;;0.60;0.57;;;;;;;;;;5071504;28;20457;-78
2022/04/05 00:40:12;;;;;;;1.33;1.23;;;;;;;;;;5073905;28;20978;-73
2022/04/05 00:42:39;;;;;;;0.80;0.80;;;;;;;;;;5073485;28;20963;-75
2022/04/05 00:45:09;;;;;;;0.70;0.70;;;;;;;;;;5074245;28;20435;-77
2022/04/05 00:47:39;;;;;;;0.77;0.77;;;;;;;;;;5066411;28;20964;-75
2022/04/05 00:50:14;;;;;;;0.60;0.60;;;;;;;;;;5056552;28;20488;-76
2022/04/05 00:52:44;;;;;;;0.60;0.50;;;;;;;;;;5074922;28;20466;-75
2022/04/05 00:55:18;;;;;;;0.60;0.60;;;;;;;;;;5054316;28;20440;-76
2022/04/05 00:57:50;;;;;;;0.70;0.60;;;;;;;;;;5053008;28;20945;-75
2022/04/05 01:00:18;;;;;;;0.60;0.60;;;;;;;;;;5054248;28;20845;-76
2022/04/05 01:02:49;;;;;;;1.00;0.90;;;;;;;;;;5053159;28;20932;-75
2022/04/05 01:05:21;;;;;;;0.60;0.50;;;;;;;;;;5061967;28;20432;-78
2022/04/05 01:07:50;;;;;;;1.63;1.07;;;;;;;;;;5056323;28;20567;-76
2022/04/05 01:10:23;;;;;;;0.60;0.60;;;;;;;;;;5072403;28;21009;-79
2022/04/05 01:12:56;;;;;;;1.80;1.27;;;;;;;;;;5061187;28;20450;-76
2022/04/05 01:15:25;;;;;;;0.60;0.50;;;;;;;;;;5058288;28;20436;-75
2022/04/05 01:17:55;;;;;;;0.70;0.60;;;;;;;;;;5037016;28;21014;-74
2022/04/05 01:20:29;;;;;;;0.77;0.77;;;;;;;;;;5036727;28;20432;-75
2022/04/05 01:22:58;;;;;;;0.60;0.60;;;;;;;;;;5071161;28;20484;-80
2022/04/05 01:25:29;;;;;;;0.60;0.60;;;;;;;;;;5072505;28;20522;-75
2022/04/05 01:28:00;;;;;;;0.60;0.50;;;;;;;;;;5074556;28;20439;-80
2022/04/05 01:30:36;;;;;;;0.60;0.60;;;;;;;;;;5071431;28;20431;-76
2022/04/05 01:33:09;;;;;;;0.70;0.70;;;;;;;;;;5055829;28;20959;-78
2022/04/05 01:35:40;;;;;;;0.60;0.60;;;;;;;;;;5057112;28;20441;-77
2022/04/05 01:38:11;;;;;;;1.17;0.80;;;;;;;;;;5053099;28;20767;-75
2022/04/05 01:40:47;;;;;;;0.60;0.60;;;;;;;;;;5058649;28;20537;-76
2022/04/05 01:43:17;;;;;;;0.60;0.60;;;;;;;;;;5053317;28;20400;-77
2022/04/05 01:45:52;;;;;;;0.60;0.60;;;;;;;;;;5055774;28;20454;-78
2022/04/05 01:48:23;;;;;;;0.60;0.60;;;;;;;;;;5060346;28;21007;-80
2022/04/05 01:50:53;;;;;;;0.60;0.60;;;;;;;;;;5055548;28;20456;-81
2022/04/05 01:53:25;;;;;;;0.60;0.60;;;;;;;;;;5071626;28;21010;-80
2022/04/05 01:55:55;;;;;;;0.70;0.70;;;;;;;;;;5054153;28;20463;-77
2022/04/05 01:58:22;;;;;;;0.60;0.50;;;;;;;;;;5052673;28;20497;-81
2022/04/05 02:00:49;;;;;;;0.60;0.60;;;;;;;;;;5051644;28;21011;-79
2022/04/05 02:03:16;;;;;;;0.60;0.60;;;;;;;;;;5068306;28;20428;-80
2022/04/05 02:05:46;;;;;;;0.70;0.70;;;;;;;;;;5058452;28;20447;-79
2022/04/05 02:08:13;;;;;;;0.60;0.60;;;;;;;;;;5072261;28;20428;-78
2022/04/05 02:10:40;;;;;;;0.80;0.80;;;;;;;;;;5053351;28;20921;-78
2022/04/05 02:13:08;;;;;;;1.20;1.00;;;;;;;;;;5072423;28;20459;-76
2022/04/05 02:15:39;;;;;;;0.80;0.70;;;;;;;;;;5056732;28;20530;-81
2022/04/05 02:18:08;;;;;;;0.60;0.60;;;;;;;;;;5056058;28;20447;-80
2022/04/05 02:20:34;;;;;;;0.90;0.90;;;;;;;;;;5070738;28;20958;-82
2022/04/05 02:23:02;;;;;;;0.60;0.57;;;;;;;;;;5036070;28;20841;-81
2022/04/05 02:25:54;;;;;;;0.60;0.60;;;;;;;;;;5041831;28;20797;-79
2022/04/05 02:28:27;;;;;;;0.70;0.70;;;;;;;;;;5053183;28;20489;-79
2022/04/05 02:30:56;;;;;;;0.70;0.70;;;;;;;;;;5050649;28;20440;-80
2022/04/05 02:33:30;;;;;;;0.60;0.50;;;;;;;;;;5070645;28;20433;-80
2022/04/05 02:36:03;;;;;;;0.60;0.60;;;;;;;;;;5072746;28;20878;-80
2022/04/05 02:38:30;;;;;;;0.60;0.60;;;;;;;;;;5072168;28;20936;-80
2022/04/05 02:40:59;;;;;;;0.60;0.50;;;;;;;;;;5069322;28;20504;-79
2022/04/05 02:43:30;;;;;;;0.70;0.70;;;;;;;;;;5052437;28;20495;-81
2022/04/05 02:45:58;;;;;;;0.60;0.50;;;;;;;;;;5051696;28;20459;-80
2022/04/05 02:48:27;;;;;;;0.60;0.60;;;;;;;;;;5052643;28;20432;-80
2022/04/05 02:50:55;;;;;;;0.60;0.60;;;;;;;;;;5053880;28;20468;-80
2022/04/05 02:53:22;;;;;;;0.70;0.60;;;;;;;;;;5069270;28;20439;-79
2022/04/05 02:55:50;;;;;;;0.70;0.70;;;;;;;;;;5059008;28;20444;-81
2022/04/05 02:58:17;;;;;;;0.60;0.50;;;;;;;;;;5049211;28;20522;-80
2022/04/05 03:00:47;;;;;;;0.60;0.50;;;;;;;;;;5070645;28;20437;-79
2022/04/05 03:03:16;;;;;;;0.60;0.50;;;;;;;;;;5053894;28;20455;-79
2022/04/05 03:05:49;;;;;;;0.80;0.80;;;;;;;;;;5065555;28;20509;-79
2022/04/05 03:08:17;;;;;;;0.60;0.60;;;;;;;;;;5080406;28;20984;-78
2022/04/05 03:10:45;;;;;;;0.60;0.50;;;;;;;;;;5071260;28;20559;-79
2022/04/05 03:13:13;;;;;;;0.60;0.60;;;;;;;;;;5054467;28;20472;-80
2022/04/05 03:15:42;;;;;;;0.60;0.60;;;;;;;;;;5056244;28;20468;-81
2022/04/05 03:18:11;;;;;;;0.60;0.57;;;;;;;;;;5072353;28;20451;-79
2022/04/05 03:20:38;;;;;;;0.60;0.50;;;;;;;;;;5069805;28;20427;-79
2022/04/05 03:23:07;;;;;;;0.60;0.60;;;;;;;;;;5052258;28;20453;-79
2022/04/05 03:25:34;;;;;;;0.60;0.50;;;;;;;;;;5053152;28;20496;-80
2022/04/05 03:28:01;;;;;;;0.70;0.60;;;;;;;;;;5057328;28;20436;-80
2022/04/05 03:30:29;;;;;;;1.07;0.97;;;;;;;;;;5076533;28;20482;-80
2022/04/05 03:32:58;;;;;;;0.60;0.60;;;;;;;;;;5076027;28;20466;-77
2022/04/05 03:35:27;;;;;;;0.60;0.50;;;;;;;;;;5076898;28;20447;-80
2022/04/05 03:37:56;;;;;;;2.37;1.57;;;;;;;;;;5053843;28;20815;-77
2022/04/05 03:40:24;;;;;;;0.60;0.60;;;;;;;;;;5059473;28;20804;-79
2022/04/05 03:42:51;;;;;;;0.60;0.60;;;;;;;;;;5065907;28;20439;-81
2022/04/05 03:45:19;;;;;;;0.60;0.60;;;;;;;;;;5063498;28;20516;-80
2022/04/05 03:47:46;;;;;;;0.60;0.60;;;;;;;;;;5074593;28;20795;-80
2022/04/05 03:50:14;;;;;;;0.60;0.60;;;;;;;;;;5075031;28;20554;-79
2022/04/05 03:52:45;;;;;;;0.60;0.57;;;;;;;;;;5058269;28;20505;-79
2022/04/05 03:55:17;;;;;;;0.60;0.60;;;;;;;;;;5073854;28;20493;-79
2022/04/05 03:57:49;;;;;;;0.70;0.70;;;;;;;;;;5057531;28;20452;-78
2022/04/05 04:00:18;;;;;;;0.60;0.50;;;;;;;;;;5062251;28;20446;-77
2022/04/05 04:02:56;;;;;;;0.70;0.60;;;;;;;;;;5058260;28;20436;-79
2022/04/05 04:05:25;;;;;;;0.60;0.60;;;;;;;;;;5060764;28;20845;-75
2022/04/05 04:07:55;;;;;;;0.60;0.50;;;;;;;;;;5075509;28;20479;-74
2022/04/05 04:10:24;;;;;;;0.60;0.60;;;;;;;;;;5072315;28;20464;-74
2022/04/05 04:12:54;;;;;;;0.60;0.60;;;;;;;;;;5065275;28;20453;-77
2022/04/05 04:15:22;;;;;;;0.60;0.50;;;;;;;;;;5070278;28;20513;-77
2022/04/05 04:17:51;;;;;;;0.60;0.60;;;;;;;;;;5065781;28;20469;-76
2022/04/05 04:20:19;;;;;;;1.03;0.97;;;;;;;;;;5053027;28;20484;-77
2022/04/05 04:22:47;;;;;;;0.60;0.50;;;;;;;;;;5052150;28;20465;-76
2022/04/05 04:25:16;;;;;;;0.60;0.60;;;;;;;;;;5052133;28;20486;-75
2022/04/05 04:27:43;;;;;;;0.60;0.50;;;;;;;;;;5052461;28;20995;-76
2022/04/05 04:30:10;;;;;;;0.60;0.50;;;;;;;;;;5052791;28;20991;-76
2022/04/05 04:32:37;;;;;;;0.60;0.50;;;;;;;;;;5053843;28;20452;-78
2022/04/05 04:35:04;;;;;;;0.60;0.60;;;;;;;;;;5056776;28;20434;-78
2022/04/05 04:37:31;;;;;;;0.60;0.50;;;;;;;;;;5057644;28;21034;-77
2022/04/05 04:39:57;;;;;;;0.60;0.60;;;;;;;;;;5074418;28;20514;-76
2022/04/05 04:42:26;;;;;;;1.20;0.90;;;;;;;;;;5074556;28;20424;-74
2022/04/05 04:44:53;;;;;;;1.07;1.07;;;;;;;;;;5074202;28;20448;-76
2022/04/05 04:47:19;;;;;;;0.70;0.60;;;;;;;;;;5070990;28;20932;-75
2022/04/05 04:49:46;;;;;;;0.60;0.50;;;;;;;;;;5075533;28;20497;-76
2022/04/05 04:52:13;;;;;;;0.60;0.50;;;;;;;;;;5073853;28;20528;-76
2022/04/05 04:54:39;;;;;;;4.20;1.10;;;;;;;;;;5072214;28;20499;-76
2022/04/05 04:57:06;;;;;;;0.60;0.60;;;;;;;;;;5071661;28;20426;-74
2022/04/05 04:59:35;;;;;;;0.70;0.70;;;;;;;;;;5073924;28;20404;-75
2022/04/05 05:02:02;;;;;;;0.60;0.60;;;;;;;;;;5063155;28;20438;-75
2022/04/05 05:04:30;;;;;;;0.70;0.70;;;;;;;;;;5059821;28;20968;-74
2022/04/05 05:06:57;;;;;;;0.60;0.60;;;;;;;;;;5054418;28;20459;-74
2022/04/05 05:09:23;;;;;;;0.60;0.60;;;;;;;;;;5071966;28;20416;-76
2022/04/05 05:11:50;;;;;;;0.60;0.60;;;;;;;;;;5074665;28;20429;-75
2022/04/05 05:14:19;;;;;;;0.60;0.50;;;;;;;;;;5073679;28;20412;-75
2022/04/05 05:16:47;;;;;;;0.60;0.60;;;;;;;;;;5073294;28;20455;-75
2022/04/05 05:19:14;;;;;;;0.60;0.60;;;;;;;;;;5073857;28;20437;-76
2022/04/05 05:21:42;;;;;;;0.70;0.70;;;;;;;;;;5073590;28;20455;-76
2022/04/05 05:24:09;;;;;;;0.60;0.50;;;;;;;;;;5073282;28;20840;-75
2022/04/05 05:26:37;;;;;;;0.60;0.50;;;;;;;;;;5073735;28;20414;-75
2022/04/05 05:29:04;;;;;;;0.60;0.60;;;;;;;;;;5073420;28;20959;-76
2022/04/05 05:31:34;;;;;;;0.60;0.50;;;;;;;;;;5073211;28;20978;-75
2022/04/05 05:34:02;;;;;;;0.60;0.50;;;;;;;;;;5074291;28;20441;-75
2022/04/05 05:36:29;;;;;;;0.60;0.50;;;;;;;;;;5049971;28;20477;-75
2022/04/05 05:38:56;;;;;;;0.60;0.50;;;;;;;;;;5061717;28;20893;-75
2022/04/05 05:41:22;;;;;;;0.60;0.60;;;;;;;;;;5053464;28;20419;-75
2022/04/05 05:43:49;;;;;;;0.60;0.60;;;;;;;;;;5036559;28;20951;-75
2022/04/05 05:46:16;;;;;;;0.60;0.60;;;;;;;;;;5054427;28;20977;-75
2022/04/05 05:48:43;;;;;;;0.60;0.60;;;;;;;;;;5052832;28;20529;-75
2022/04/05 05:51:11;;;;;;;0.60;0.50;;;;;;;;;;5053700;28;20484;-74
2022/04/05 05:53:37;;;;;;;0.60;0.50;;;;;;;;;;5052710;28;20454;-74
2022/04/05 05:56:04;;;;;;;0.60;0.50;;;;;;;;;;5053066;28;20411;-76
2022/04/05 05:58:31;;;;;;;0.60;0.50;;;;;;;;;;5052765;28;20419;-74
2022/04/05 06:00:59;;;;;;;0.60;0.50;;;;;;;;;;5052785;28;20449;-76
2022/04/05 06:03:26;;;;;;;0.60;0.50;;;;;;;;;;5072749;28;20806;-75
2022/04/05 06:05:53;;;;;;;1.17;1.07;;;;;;;;;;5072474;28;20442;-74
2022/04/05 06:08:21;;;;;;;0.60;0.60;;;;;;;;;;5055601;28;20532;-74
2022/04/05 06:10:48;;;;;;;0.70;0.50;;;;;;;;;;5073236;28;20465;-75
2022/04/05 06:13:16;;;;;;;0.60;0.50;;;;;;;;;;5055875;28;20535;-74
2022/04/05 06:15:44;;;;;;;0.60;0.60;;;;;;;;;;5052493;28;20796;-73
2022/04/05 06:18:10;;;;;;;0.60;0.60;;;;;;;;;;5073749;28;20457;-73
2022/04/05 06:20:37;;;;;;;0.60;0.50;;;;;;;;;;5073781;28;20925;-72
2022/04/05 06:23:04;;;;;;;0.60;0.57;;;;;;;;;;5072599;28;20438;-71
2022/04/05 06:25:34;;;;;;;0.60;0.60;;;;;;;;;;5073024;28;20422;-74
2022/04/05 06:28:02;;;;;;;0.60;0.60;;;;;;;;;;5071753;28;20436;-72
2022/04/05 06:30:29;;;;;;;0.60;0.50;;;;;;;;;;5071905;28;20918;-74
2022/04/05 06:33:06;;;;;;;0.60;0.50;;;;;;;;;;5055730;28;20470;-72
2022/04/05 06:35:33;;;;;;;0.70;0.70;;;;;;;;;;5073331;28;20445;-74
2022/04/05 06:38:00;;;;;;;0.60;0.50;;;;;;;;;;5073356;28;20410;-72
2022/04/05 06:40:27;;;;;;;0.87;0.87;;;;;;;;;;5073589;28;20400;-74
2022/04/05 06:42:55;;;;;;;0.60;0.50;;;;;;;;;;5071700;28;20458;-75
2022/04/05 06:45:22;;;;;;;0.60;0.50;;;;;;;;;;5071611;28;20806;-75
2022/04/05 06:47:49;;;;;;;0.60;0.50;;;;;;;;;;5071810;28;20466;-73
2022/04/05 06:50:20;;;;;;;0.60;0.50;;;;;;;;;;5069769;28;20497;-73
2022/04/05 06:52:47;;;;;;;0.60;0.50;;;;;;;;;;5068385;28;20458;-72
2022/04/05 06:55:13;;;;;;;0.60;0.60;;;;;;;;;;5069837;28;20426;-72
2022/04/05 06:57:40;;;;;;;0.60;0.50;;;;;;;;;;5058178;28;20439;-74
2022/04/05 07:00:10;;;;;;;0.60;0.50;;;;;;;;;;5064707;28;20441;-73
2022/04/05 07:02:37;;;;;;;0.60;0.50;;;;;;;;;;5072652;28;20430;-73
2022/04/05 07:05:05;;;;;;;0.60;0.60;;;;;;;;;;5071930;28;20971;-73
2022/04/05 07:07:32;;;;;;;0.60;0.50;;;;;;;;;;5072820;28;20803;-74
2022/04/05 07:09:59;;;;;;;0.60;0.60;;;;;;;;;;5071501;28;20455;-74
2022/04/05 07:12:26;;;;;;;0.70;0.63;;;;;;;;;;5073387;28;20472;-74
2022/04/05 07:14:53;;;;;;;0.60;0.60;;;;;;;;;;5071550;28;20460;-74
2022/04/05 07:17:21;;;;;;;0.60;0.50;;;;;;;;;;5072155;28;20465;-74
2022/04/05 07:19:47;;;;;;;0.60;0.60;;;;;;;;;;5076726;28;20939;-71
2022/04/05 07:22:14;;;;;;;0.60;0.50;;;;;;;;;;5075726;28;20460;-72
2022/04/05 07:24:41;;;;;;;0.60;0.50;;;;;;;;;;5076960;28;20417;-75
2022/04/05 07:27:08;;;;;;;0.60;0.60;;;;;;;;;;5075881;28;20921;-73
2022/04/05 07:29:35;;;;;;;0.60;0.50;;;;;;;;;;5075244;28;20511;-74
2022/04/05 07:32:02;;;;;;;0.60;0.60;;;;;;;;;;5068795;28;20466;-73
2022/04/05 07:34:30;;;;;;;0.60;0.60;;;;;;;;;;5058514;28;20445;-74
2022/04/05 07:36:57;;;;;;;0.60;0.50;;;;;;;;;;5055510;28;20473;-72
2022/04/05 07:39:24;;;;;;;0.60;0.60;;;;;;;;;;5054385;28;20498;-73
2022/04/05 07:41:52;;;;;;;0.60;0.50;;;;;;;;;;5056874;28;20425;-73
2022/04/05 07:44:19;;;;;;;0.60;0.60;;;;;;;;;;5056790;28;20421;-73
2022/04/05 07:46:46;;;;;;;0.60;0.50;;;;;;;;;;5056632;28;20451;-72
2022/04/05 07:49:13;;;;;;;0.70;0.70;;;;;;;;;;5056441;28;20459;-73
2022/04/05 07:51:41;;;;;;;0.60;0.60;;;;;;;;;;5056088;28;20470;-72
2022/04/05 07:54:08;;;;;;;0.60;0.60;;;;;;;;;;5054700;28;20475;-73
2022/04/05 07:56:34;;;;;;;0.60;0.60;;;;;;;;;;5059963;28;20434;-74
2022/04/05 07:59:05;;;;;;;0.60;0.60;;;;;;;;;;5075116;28;20409;-74
2022/04/05 08:01:31;;;;;;;0.60;0.50;;;;;;;;;;5058480;28;20470;-75
2022/04/05 08:03:58;;;;;;;0.60;0.50;;;;;;;;;;5074986;28;20450;-73
2022/04/05 08:06:27;;;;;;;0.60;0.60;;;;;;;;;;5076276;28;20448;-75
2022/04/05 08:08:56;;;;;;;0.60;0.60;;;;;;;;;;5074047;28;20481;-73
2022/04/05 08:11:24;;;;;;;0.60;0.60;;;;;;;;;;5076105;28;20468;-73
2022/04/05 08:13:51;;;;;;;0.60;0.50;;;;;;;;;;5076282;28;20521;-75
2022/04/05 08:16:26;;;;;;;0.60;0.60;;;;;;;;;;5074926;28;20421;-75
2022/04/05 08:18:54;;;;;;;0.60;0.50;;;;;;;;;;5075888;28;20753;-76
2022/04/05 08:21:21;;;;;;;0.60;0.60;;;;;;;;;;5074809;28;20550;-74
2022/04/05 08:23:50;;;;;;;0.60;0.60;;;;;;;;;;5060755;28;20437;-74
2022/04/05 08:26:18;;;;;;;0.60;0.60;;;;;;;;;;5054187;28;20479;-76
2022/04/05 08:28:55;;;;;;;0.60;0.50;;;;;;;;;;5054134;28;20487;-76
2022/04/05 08:31:24;;;;;;;0.60;0.53;;;;;;;;;;5048506;28;20481;-75
2022/04/05 08:33:51;;;;;;;0.60;0.60;;;;;;;;;;5054327;28;20462;-76
2022/04/05 08:36:18;;;;;;;0.90;0.80;;;;;;;;;;5054580;28;20898;-76
2022/04/05 08:38:46;;;;;;;0.60;0.60;;;;;;;;;;5055459;28;20434;-75
2022/04/05 08:41:13;;;;;;;0.90;0.90;;;;;;;;;;5064505;28;20462;-75
2022/04/05 08:43:43;;;;;;;1.10;1.07;;;;;;;;;;5074018;28;20420;-76
2022/04/05 08:46:10;;;;;;;0.60;0.50;;;;;;;;;;5074342;28;20782;-76
2022/04/05 08:48:38;;;;;;;0.60;0.60;;;;;;;;;;5074340;28;20417;-76
2022/04/05 08:51:05;;;;;;;0.63;0.63;;;;;;;;;;5071747;28;20511;-76
2022/04/05 08:53:33;;;;;;;0.97;0.97;;;;;;;;;;5062879;28;20450;-75
2022/04/05 08:56:00;;;;;;;0.60;0.50;;;;;;;;;;5054988;28;20440;-76
2022/04/05 08:58:27;;;;;;;0.60;0.60;;;;;;;;;;5058992;28;20513;-77
2022/04/05 09:00:56;;;;;;;0.60;0.60;;;;;;;;;;5071913;28;20770;-74
2022/04/05 09:03:23;;;;;;;1.20;1.10;;;;;;;;;;5054102;28;20429;-73
2022/04/05 09:05:52;;;;;;;0.60;0.60;;;;;;;;;;5053846;28;20484;-73
2022/04/05 09:08:20;;;;;;;0.60;0.50;;;;;;;;;;5053903;28;20482;-77
2022/04/05 09:10:49;;;;;;;0.60;0.60;;;;;;;;;;5053538;28;20459;-73
2022/04/05 09:13:20;;;;;;;0.67;0.67;;;;;;;;;;5053544;28;20420;-74
2022/04/05 09:15:50;;;;;;;0.60;0.60;;;;;;;;;;5054243;28;20428;-75
2022/04/05 09:18:41;;;;;;;0.60;0.60;;;;;;;;;;5053531;28;20451;-74
2022/04/05 09:21:10;;;;;;;1.33;1.23;;;;;;;;;;5038623;28;20955;-74
2022/04/05 09:23:44;;;;;;;0.60;0.60;;;;;;;;;;5054699;28;20763;-73
2022/04/05 09:26:11;;;;;;;0.83;0.80;;;;;;;;;;5057773;28;20443;-73
2022/04/05 09:28:39;;;;;;;0.60;0.60;;;;;;;;;;5073513;28;20453;-75
2022/04/05 09:31:08;;;;;;;0.63;0.63;;;;;;;;;;5074311;28;20510;-74
2022/04/05 09:33:36;;;;;;;0.60;0.50;;;;;;;;;;5056757;28;20492;-74
2022/04/05 09:36:06;;;;;;;0.70;0.70;;;;;;;;;;5072962;28;20513;-73
2022/04/05 09:38:37;;;;;;;0.60;0.60;;;;;;;;;;5074104;28;20473;-74
2022/04/05 09:41:15;;;;;;;0.60;0.60;;;;;;;;;;5072592;28;20415;-74
2022/04/05 09:43:52;;;;;;;0.60;0.60;;;;;;;;;;5074441;28;20430;-74
2022/04/05 09:46:21;;;;;;;0.60;0.50;;;;;;;;;;5073474;28;20771;-74
2022/04/05 09:49:02;;;;;;;0.80;0.80;;;;;;;;;;5074271;28;20432;-74
2022/04/05 09:51:33;;;;;;;0.70;0.67;;;;;;;;;;5074077;28;20467;-74
2022/04/05 09:54:02;;;;;;;0.70;0.60;;;;;;;;;;5073484;28;20415;-74
2022/04/05 09:56:30;;;;;;;0.60;0.60;;;;;;;;;;5074143;28;20462;-74
2022/04/05 09:59:02;;;;;;;0.60;0.60;;;;;;;;;;5072670;28;20434;-75
2022/04/05 10:01:31;;;;;;;0.60;0.53;;;;;;;;;;5072834;28;20855;-74
2022/04/05 10:04:00;;;;;;;0.60;0.60;;;;;;;;;;5073041;28;20743;-74
2022/04/05 10:06:30;;;;;;;0.60;0.50;;;;;;;;;;5051854;28;20459;-74
2022/04/05 10:08:57;;;;;;;0.60;0.50;;;;;;;;;;5053364;28;20907;-74
2022/04/05 10:11:26;;;;;;;1.20;1.10;;;;;;;;;;5053285;28;20529;-73
2022/04/05 10:13:54;;;;;;;0.70;0.70;;;;;;;;;;5036151;28;20499;-73
2022/04/05 10:16:22;;;;;;;1.20;1.07;;;;;;;;;;5053935;28;20419;-75
2022/04/05 10:19:07;;;;;;;1.53;1.43;;;;;;;;;;5053225;28;20872;-74
2022/04/05 10:21:35;;;;;;;0.60;0.60;;;;;;;;;;5052487;28;20505;-73
2022/04/05 10:24:03;;;;;;;0.60;0.60;;;;;;;;;;5052067;28;20484;-74
2022/04/05 10:26:33;;;;;;;0.60;0.60;;;;;;;;;;5052033;28;20425;-75
2022/04/05 10:29:03;;;;;;;1.43;1.00;;;;;;;;;;5055647;28;20942;-74
2022/04/05 10:31:32;;;;;;;0.70;0.70;;;;;;;;;;5060527;28;21088;-73
2022/04/05 10:34:11;;;;;;;0.60;0.60;;;;;;;;;;5073561;28;20430;-74
2022/04/05 10:36:38;;;;;;;0.60;0.60;;;;;;;;;;5073605;28;20526;-73
2022/04/05 10:39:15;;;;;;;0.70;0.70;;;;;;;;;;5069975;28;20477;-73
2022/04/05 10:41:44;;;;;;;0.67;0.67;;;;;;;;;;5052749;28;20448;-73
2022/04/05 10:44:28;;;;;;;0.60;0.60;;;;;;;;;;5053487;28;20524;-72
2022/04/05 10:46:57;;;;;;;0.80;0.80;;;;;;;;;;5055992;28;20547;-73
2022/04/05 10:49:45;;;;;;;0.70;0.60;;;;;;;;;;5059962;28;20476;-74
2022/04/05 10:52:13;;;;;;;0.70;0.70;;;;;;;;;;5052316;28;21012;-74
2022/04/05 10:54:40;;;;;;;0.80;0.80;;;;;;;;;;5051997;28;20509;-74
2022/04/05 10:57:26;;;;;;;0.63;0.60;;;;;;;;;;5070199;28;20434;-74
2022/04/05 10:59:54;;;;;;;0.70;0.60;;;;;;;;;;5073338;28;20432;-74
2022/04/05 11:02:28;;;;;;;0.80;0.80;;;;;;;;;;5073424;28;20522;-74
2022/04/05 11:05:00;;;;;;;0.70;0.70;;;;;;;;;;5071558;28;20456;-75
2022/04/05 11:07:28;;;;;;;0.80;0.77;;;;;;;;;;5055464;28;20473;-72
2022/04/05 11:09:57;;;;;;;0.70;0.70;;;;;;;;;;5072732;28;20821;-73
2022/04/05 11:12:27;;;;;;;1.00;0.90;;;;;;;;;;5058555;28;20453;-73
2022/04/05 11:14:58;;;;;;;0.70;0.70;;;;;;;;;;5053085;28;20474;-72
2022/04/05 11:17:26;;;;;;;0.70;0.60;;;;;;;;;;5051798;28;20419;-73
2022/04/05 11:19:55;;;;;;;0.70;0.70;;;;;;;;;;5053009;28;20433;-73
2022/04/05 11:22:26;;;;;;;0.70;0.70;;;;;;;;;;5058071;28;20462;-73
2022/04/05 11:24:53;;;;;;;0.90;0.90;;;;;;;;;;5069971;28;20444;-73
2022/04/05 11:27:28;;;;;;;0.90;0.83;;;;;;;;;;5055159;28;20473;-72
2022/04/05 11:30:14;;;;;;;0.77;0.77;;;;;;;;;;5055311;28;20505;-74
2022/04/05 11:32:43;;;;;;;;;;;;;;;;;;5072012;28;20295;-73
2022/04/05 11:35:24;;;;;;;0.70;0.60;;;;;;;;;;5072889;28;20263;-73
2022/04/05 11:37:51;;;;;;;1.07;0.97;;;;;;;;;;5071889;28;20509;-73
2022/04/05 11:40:21;;;;;;;0.80;0.70;;;;;;;;;;5070207;28;20451;-73
2022/04/05 11:42:50;;;;;;;0.70;0.70;;;;;;;;;;5070917;28;20419;-73
2022/04/05 11:45:16;;;;;;;0.70;0.70;;;;;;;;;;5073223;28;20415;-73
2022/04/05 11:47:43;;;;;;;;;;;;;;;;;;5073155;28;20287;-73
2022/04/05 11:50:10;;;;;;;;;;;;;;;;;;5071821;28;19924;-73
2022/04/05 11:52:37;;;;;;;;;;;;;;;;;;5071883;28;19959;-73
2022/04/05 11:57:54;;;;;;;0.70;0.60;;;;;;;;;;5071552;28;20210;-74
2022/04/05 12:00:20;;;;;;;;;;;;;;;;;;5066735;28;20295;-73
2022/04/05 12:03:00;;;;;;;0.70;0.50;;;;;;;;;;5050459;28;20751;-72
2022/04/05 12:05:39;;;;;;;0.70;0.50;;;;;;;;;;5055442;28;20766;-74
2022/04/05 12:08:08;;;;;;;1.30;1.20;;;;;;;;;;5055314;28;20200;-73
2022/04/05 12:10:36;;;;;;;0.70;0.70;;;;;;;;;;5055503;28;20445;-72
2022/04/05 12:13:04;;;;;;;0.70;0.60;;;;;;;;;;5056500;28;20506;-73
2022/04/05 12:15:32;;;;;;;0.70;0.60;;;;;;;;;;5056738;28;20471;-73
2022/04/05 12:18:15;;;;;;;0.60;0.60;;;;;;;;;;5037713;28;20427;-73
2022/04/05 12:20:52;;;;;;;3.73;1.47;;;;;;;;;;5054915;28;20985;-72
2022/04/05 12:23:19;;;;;;;0.70;0.60;;;;;;;;;;5055144;28;20964;-74
2022/04/05 12:26:18;;;;;;;0.70;0.63;;;;;;;;;;5054766;28;20806;-74
2022/04/05 12:28:49;;;;;;;0.70;0.70;;;;;;;;;;5013954;28;20830;-73
2022/04/05 12:31:16;;;;;;;0.80;0.80;;;;;;;;;;5046854;28;20456;-73
2022/04/05 12:33:54;;;;;;;0.67;0.63;;;;;;;;;;5037765;28;20478;-74
2022/04/05 12:36:21;;;;;;;0.70;0.70;;;;;;;;;;5056122;28;20499;-73
2022/04/05 12:38:49;;;;;;;0.77;0.77;;;;;;;;;;5054514;28;20432;-73
2022/04/05 12:41:17;;;;;;;0.80;0.80;;;;;;;;;;5054627;28;20485;-74
2022/04/05 12:43:46;;;;;;;0.80;0.80;;;;;;;;;;5065215;28;20438;-74
2022/04/05 12:46:14;;;;;;;0.70;0.60;;;;;;;;;;5058037;28;20469;-74
2022/04/05 12:48:42;;;;;;;0.80;0.80;;;;;;;;;;5054579;28;20837;-74
2022/04/05 12:51:09;;;;;;;0.70;0.70;;;;;;;;;;5054270;28;20440;-73
2022/04/05 12:53:38;;;;;;;0.70;0.60;;;;;;;;;;5052798;28;20494;-74
2022/04/05 12:56:09;;;;;;;0.60;0.60;;;;;;;;;;5057464;28;20452;-74
2022/04/05 12:58:38;;;;;;;0.70;0.70;;;;;;;;;;5068232;28;20457;-74
2022/04/05 13:01:17;;;;;;;0.70;0.63;;;;;;;;;;5054882;28;20479;-74
2022/04/05 13:03:44;;;;;;;1.00;1.00;;;;;;;;;;5072387;28;20419;-73
2022/04/05 13:06:20;;;;;;;0.90;0.90;;;;;;;;;;5040833;28;20553;-75
2022/04/05 13:08:47;;;;;;;0.70;0.60;;;;;;;;;;5070302;28;20468;-73
2022/04/05 13:11:25;;;;;;;0.90;0.90;;;;;;;;;;5070127;28;20426;-72
2022/04/05 13:14:00;;;;;;;0.93;0.93;;;;;;;;;;5055059;28;20505;-74
2022/04/05 13:16:29;;;;;;;0.70;0.63;;;;;;;;;;5057002;28;20456;-73
2022/04/05 13:19:06;;;;;;;0.80;0.80;;;;;;;;;;5045526;28;20495;-74
2022/04/05 13:21:39;;;;;;;0.70;0.60;;;;;;;;;;5073670;28;20463;-73
2022/04/05 13:24:06;;;;;;;2.17;1.00;;;;;;;;;;5072861;28;20432;-72
2022/04/05 13:26:33;;;;;;;0.60;0.60;;;;;;;;;;5052996;28;20479;-75
2022/04/05 13:29:01;;;;;;;1.80;1.10;;;;;;;;;;5053442;28;20532;-74
2022/04/05 13:31:31;;;;;;;0.80;0.80;;;;;;;;;;5066809;28;20481;-73
2022/04/05 13:33:58;;;;;;;1.50;0.90;;;;;;;;;;5072722;28;20463;-72
2022/04/05 13:36:24;;;;;;;0.70;0.67;;;;;;;;;;5070459;28;20897;-73
2022/04/05 13:38:52;;;;;;;3.07;1.43;;;;;;;;;;5070477;28;20425;-75
2022/04/05 13:41:19;;;;;;;0.77;0.77;;;;;;;;;;5072010;28;20472;-75
2022/04/05 13:43:46;;;;;;;0.90;0.90;;;;;;;;;;5070851;28;20440;-72
2022/04/05 13:46:12;;;;;;;0.90;0.90;;;;;;;;;;5071817;28;20530;-75
2022/04/05 13:48:41;;;;;;;0.70;0.70;;;;;;;;;;5072904;28;20412;-73
2022/04/05 13:51:14;;;;;;;0.63;0.60;;;;;;;;;;5074358;28;20469;-73
2022/04/05 13:54:01;;;;;;;0.70;0.60;;;;;;;;;;5071978;28;20454;-73
2022/04/05 13:56:27;;;;;;;1.00;1.00;;;;;;;;;;5073740;28;20489;-74
2022/04/05 13:58:55;;;;;;;0.60;0.60;;;;;;;;;;5073092;28;20461;-73
2022/04/05 14:01:22;;;;;;;0.70;0.60;;;;;;;;;;5068642;28;20535;-72
2022/04/05 14:03:51;;;;;;;0.70;0.63;;;;;;;;;;5051922;28;20522;-75
2022/04/05 14:06:18;;;;;;;0.70;0.70;;;;;;;;;;5068552;28;20872;-74
2022/04/05 14:08:45;;;;;;;0.63;0.60;;;;;;;;;;5064811;28;20474;-73
2022/04/05 14:11:12;;;;;;;1.63;0.87;;;;;;;;;;5054846;28;20494;-73
2022/04/05 14:13:55;;;;;;;0.90;0.90;;;;;;;;;;5071633;28;20517;-74
2022/04/05 14:16:22;;;;;;;0.60;0.60;;;;;;;;;;5068845;28;20444;-74
2022/04/05 14:18:49;;;;;;;0.70;0.60;;;;;;;;;;5072661;28;20519;-72
2022/04/05 14:21:33;;;;;;;1.10;1.00;;;;;;;;;;5063025;28;20458;-73
2022/04/05 14:24:02;;;;;;;1.57;1.00;;;;;;;;;;5051975;28;20430;-74
2022/04/05 14:26:30;;;;;;;0.70;0.70;;;;;;;;;;5053368;28;20420;-74
2022/04/05 14:28:57;;;;;;;0.70;0.70;;;;;;;;;;5051830;28;20451;-73
2022/04/05 14:31:25;;;;;;;1.43;1.33;;;;;;;;;;5055195;28;20485;-73
2022/04/05 14:33:52;;;;;;;0.70;0.60;;;;;;;;;;5072385;28;21059;-73
2022/04/05 14:36:19;;;;;;;0.70;0.60;;;;;;;;;;5069668;28;20792;-73
2022/04/05 14:38:49;;;;;;;0.90;0.90;;;;;;;;;;5059740;28;20446;-73
2022/04/05 14:41:19;;;;;;;0.70;0.60;;;;;;;;;;5067252;28;20466;-74
2022/04/05 14:43:47;;;;;;;0.90;0.90;;;;;;;;;;5060887;28;20441;-73
2022/04/05 14:46:14;;;;;;;0.60;0.60;;;;;;;;;;5050206;28;21086;-73
2022/04/05 14:48:41;;;;;;;1.10;0.90;;;;;;;;;;5072278;28;20446;-72
2022/04/05 14:51:09;;;;;;;0.83;0.83;;;;;;;;;;5066049;28;20568;-73
2022/04/05 14:53:36;;;;;;;0.70;0.70;;;;;;;;;;5072274;28;20815;-72
2022/04/05 14:56:04;;;;;;;0.63;0.63;;;;;;;;;;5053408;28;20543;-71
2022/04/05 14:58:31;;;;;;;0.70;0.70;;;;;;;;;;5045562;28;20815;-72
2022/04/05 15:00:58;;;;;;;0.60;0.60;;;;;;;;;;5063658;28;20432;-72